ASX067 ETSI-EDVK
Flight info
| Callsign | ASX067 |
|---|---|
| Flight time | 1h 5m |
| Altitude | 16000 |
| Route | IGL DCT UPALA Z109 BAMAS L604 GORKO Z722 ADIBA Z190 ELNAT |
| Aircraft | C414/L-SBDFGRY/S |
Departure
| Time | 2026-05-05 09:21 |
|---|---|
| Airport | Ingolstadt Manching Airport (ETSI) |
Arrival
| Time | 2026-05-05 10:27 |
|---|---|
| Airport | Kassel Airport (EDVK) |
| Time | Latitude | Longitude | Altitude | Speed | Heading |
|---|---|---|---|---|---|
| 2026-05-05 09:10 | 48.71359 | 11.54033 | 1189 ft | 0 kts | 338° |
| 2026-05-05 09:17 | 48.71389 | 11.54051 | 1189 ft | 11 kts | 68° |
| 2026-05-05 09:17 | 48.71361 | 11.54152 | 1189 ft | 13 kts | 66° |
| 2026-05-05 09:17 | 48.71442 | 11.54184 | 1189 ft | 14 kts | 338° |
| 2026-05-05 09:17 | 48.71544 | 11.54123 | 1189 ft | 18 kts | 337° |
| 2026-05-05 09:18 | 48.71677 | 11.54042 | 1189 ft | 23 kts | 337° |
| 2026-05-05 09:18 | 48.71838 | 11.53943 | 1189 ft | 26 kts | 339° |
| 2026-05-05 09:18 | 48.72012 | 11.53840 | 1189 ft | 27 kts | 338° |
| 2026-05-05 09:18 | 48.72148 | 11.53766 | 1190 ft | 10 kts | 8° |
| 2026-05-05 09:19 | 48.72186 | 11.53859 | 1190 ft | 14 kts | 68° |
| 2026-05-05 09:19 | 48.72213 | 11.53965 | 1191 ft | 19 kts | 68° |
| 2026-05-05 09:19 | 48.72271 | 11.54181 | 1190 ft | 25 kts | 68° |
| 2026-05-05 09:19 | 48.72325 | 11.54384 | 1189 ft | 18 kts | 68° |
| 2026-05-05 09:20 | 48.72372 | 11.54564 | 1189 ft | 19 kts | 58° |
| 2026-05-05 09:20 | 48.72397 | 11.54607 | 1189 ft | 0 kts | 34° |
| 2026-05-05 09:20 | 48.72418 | 11.54625 | 1189 ft | 10 kts | 22° |
| 2026-05-05 09:20 | 48.72455 | 11.54523 | 1190 ft | 19 kts | 250° |
| 2026-05-05 09:21 | 48.72353 | 11.54134 | 1192 ft | 66 kts | 248° |
| 2026-05-05 09:21 | 48.72129 | 11.53285 | 1234 ft | 103 kts | 248° |
| 2026-05-05 09:21 | 48.71883 | 11.52268 | 1598 ft | 104 kts | 251° |
| 2026-05-05 09:21 | 48.71638 | 11.51193 | 1940 ft | 108 kts | 245° |
| 2026-05-05 09:22 | 48.71184 | 11.50276 | 2272 ft | 113 kts | 219° |
| 2026-05-05 09:22 | 48.70469 | 11.49812 | 2610 ft | 113 kts | 184° |
| 2026-05-05 09:22 | 48.69730 | 11.50189 | 2907 ft | 118 kts | 134° |
| 2026-05-05 09:22 | 48.69513 | 11.51310 | 3278 ft | 113 kts | 77° |
| 2026-05-05 09:23 | 48.69782 | 11.52386 | 3633 ft | 110 kts | 68° |
| 2026-05-05 09:23 | 48.70085 | 11.53481 | 3920 ft | 116 kts | 63° |
| 2026-05-05 09:23 | 48.70609 | 11.54418 | 4274 ft | 118 kts | 41° |
| 2026-05-05 09:23 | 48.71301 | 11.55081 | 4626 ft | 118 kts | 28° |
| 2026-05-05 09:24 | 48.72044 | 11.55626 | 4963 ft | 119 kts | 23° |
| 2026-05-05 09:24 | 48.72853 | 11.55919 | 5287 ft | 121 kts | 2° |
| 2026-05-05 09:24 | 48.73676 | 11.55681 | 5604 ft | 122 kts | 337° |
| 2026-05-05 09:24 | 48.74454 | 11.55141 | 5920 ft | 123 kts | 336° |
| 2026-05-05 09:25 | 48.75239 | 11.54605 | 6257 ft | 124 kts | 336° |
| 2026-05-05 09:25 | 48.76028 | 11.54052 | 6573 ft | 125 kts | 335° |
| 2026-05-05 09:25 | 48.76812 | 11.53500 | 6896 ft | 126 kts | 335° |
| 2026-05-05 09:25 | 48.77612 | 11.52941 | 7214 ft | 127 kts | 335° |
| 2026-05-05 09:26 | 48.78416 | 11.52376 | 7532 ft | 128 kts | 334° |
| 2026-05-05 09:26 | 48.79228 | 11.51804 | 7842 ft | 129 kts | 334° |
| 2026-05-05 09:26 | 48.80049 | 11.51235 | 8152 ft | 130 kts | 334° |
| 2026-05-05 09:26 | 48.80875 | 11.50662 | 8468 ft | 131 kts | 334° |
| 2026-05-05 09:27 | 48.81708 | 11.50078 | 8791 ft | 133 kts | 334° |
| 2026-05-05 09:27 | 48.82552 | 11.49493 | 9114 ft | 134 kts | 334° |
| 2026-05-05 09:27 | 48.83404 | 11.48901 | 9449 ft | 135 kts | 333° |
| 2026-05-05 09:27 | 48.84262 | 11.48298 | 9758 ft | 137 kts | 333° |
| 2026-05-05 09:28 | 48.85129 | 11.47690 | 10070 ft | 137 kts | 333° |
| 2026-05-05 09:28 | 48.86003 | 11.47079 | 10384 ft | 138 kts | 332° |
| 2026-05-05 09:28 | 48.86879 | 11.46469 | 10699 ft | 139 kts | 332° |
| 2026-05-05 09:28 | 48.87753 | 11.45859 | 11010 ft | 140 kts | 332° |
| 2026-05-05 09:29 | 48.88637 | 11.45240 | 11322 ft | 141 kts | 331° |
| 2026-05-05 09:29 | 48.89529 | 11.44618 | 11659 ft | 141 kts | 331° |
| 2026-05-05 09:29 | 48.90424 | 11.43993 | 11998 ft | 142 kts | 330° |
| 2026-05-05 09:29 | 48.91324 | 11.43361 | 12324 ft | 142 kts | 330° |
| 2026-05-05 09:30 | 48.92227 | 11.42729 | 12652 ft | 143 kts | 330° |
| 2026-05-05 09:30 | 48.93134 | 11.42096 | 12997 ft | 144 kts | 330° |
| 2026-05-05 09:30 | 48.94046 | 11.41461 | 13326 ft | 144 kts | 329° |
| 2026-05-05 09:30 | 48.94960 | 11.40817 | 13642 ft | 145 kts | 329° |
| 2026-05-05 09:31 | 48.95880 | 11.40167 | 13942 ft | 146 kts | 329° |
| 2026-05-05 09:31 | 48.96796 | 11.39525 | 14270 ft | 147 kts | 329° |
| 2026-05-05 09:31 | 48.97728 | 11.38871 | 14578 ft | 148 kts | 329° |
| 2026-05-05 09:31 | 48.98669 | 11.38209 | 14884 ft | 149 kts | 329° |
| 2026-05-05 09:32 | 48.99615 | 11.37544 | 15193 ft | 150 kts | 329° |
| 2026-05-05 09:32 | 49.00568 | 11.36878 | 15501 ft | 151 kts | 329° |
| 2026-05-05 09:32 | 49.01528 | 11.36205 | 15784 ft | 153 kts | 329° |
| 2026-05-05 09:32 | 49.02541 | 11.35486 | 15834 ft | 168 kts | 330° |
| 2026-05-05 09:33 | 49.03632 | 11.34713 | 15838 ft | 181 kts | 330° |
| 2026-05-05 09:33 | 49.04807 | 11.33881 | 15842 ft | 190 kts | 330° |
| 2026-05-05 09:33 | 49.06031 | 11.33018 | 15842 ft | 196 kts | 330° |
| 2026-05-05 09:33 | 49.07287 | 11.32135 | 15839 ft | 200 kts | 331° |
| 2026-05-05 09:34 | 49.08564 | 11.31241 | 15836 ft | 203 kts | 331° |
| 2026-05-05 09:34 | 49.09854 | 11.30333 | 15847 ft | 205 kts | 331° |
| 2026-05-05 09:34 | 49.11154 | 11.29414 | 15837 ft | 207 kts | 331° |
| 2026-05-05 09:34 | 49.12445 | 11.28501 | 15843 ft | 208 kts | 331° |
| 2026-05-05 09:35 | 49.13762 | 11.27573 | 15839 ft | 208 kts | 331° |
| 2026-05-05 09:35 | 49.16396 | 11.25708 | 15843 ft | 209 kts | 331° |
| 2026-05-05 09:35 | 49.17715 | 11.24779 | 15841 ft | 209 kts | 331° |
| 2026-05-05 09:36 | 49.19034 | 11.23843 | 15841 ft | 209 kts | 331° |
| 2026-05-05 09:36 | 49.20352 | 11.22908 | 15844 ft | 208 kts | 331° |
| 2026-05-05 09:36 | 49.21713 | 11.22114 | 15851 ft | 211 kts | 341° |
| 2026-05-05 09:36 | 49.23168 | 11.21730 | 15851 ft | 213 kts | 349° |
| 2026-05-05 09:37 | 49.24632 | 11.21381 | 15848 ft | 213 kts | 347° |
| 2026-05-05 09:37 | 49.26070 | 11.20995 | 15848 ft | 213 kts | 347° |
| 2026-05-05 09:37 | 49.27529 | 11.20594 | 15846 ft | 213 kts | 347° |
| 2026-05-05 09:37 | 49.28991 | 11.20196 | 15846 ft | 213 kts | 347° |
| 2026-05-05 09:38 | 49.30450 | 11.19805 | 15847 ft | 212 kts | 347° |
| 2026-05-05 09:38 | 49.31905 | 11.19416 | 15850 ft | 212 kts | 347° |
| 2026-05-05 09:38 | 49.33359 | 11.19030 | 15853 ft | 212 kts | 347° |
| 2026-05-05 09:38 | 49.34818 | 11.18650 | 15853 ft | 213 kts | 347° |
| 2026-05-05 09:39 | 49.36275 | 11.18269 | 15852 ft | 212 kts | 347° |
| 2026-05-05 09:39 | 49.37733 | 11.17886 | 15853 ft | 212 kts | 347° |
| 2026-05-05 09:39 | 49.39186 | 11.17503 | 15857 ft | 212 kts | 347° |
| 2026-05-05 09:39 | 49.40645 | 11.17121 | 15859 ft | 213 kts | 347° |
| 2026-05-05 09:40 | 49.42109 | 11.16737 | 15851 ft | 213 kts | 347° |
| 2026-05-05 09:40 | 49.43569 | 11.16353 | 15850 ft | 213 kts | 347° |
| 2026-05-05 09:40 | 49.45007 | 11.15974 | 15855 ft | 212 kts | 347° |
| 2026-05-05 09:40 | 49.46463 | 11.15593 | 15858 ft | 212 kts | 347° |
| 2026-05-05 09:41 | 49.47918 | 11.15210 | 15858 ft | 212 kts | 347° |
| 2026-05-05 09:41 | 49.49376 | 11.14825 | 15859 ft | 212 kts | 347° |
| 2026-05-05 09:41 | 49.50836 | 11.14442 | 15856 ft | 213 kts | 347° |
| 2026-05-05 09:41 | 49.52291 | 11.14060 | 15854 ft | 212 kts | 347° |
| 2026-05-05 09:42 | 49.53750 | 11.13676 | 15858 ft | 212 kts | 347° |
| 2026-05-05 09:42 | 49.55205 | 11.13292 | 15861 ft | 213 kts | 347° |
| 2026-05-05 09:42 | 49.56670 | 11.12904 | 15856 ft | 213 kts | 347° |
| 2026-05-05 09:42 | 49.58111 | 11.12524 | 15850 ft | 213 kts | 347° |
| 2026-05-05 09:43 | 49.59568 | 11.12139 | 15858 ft | 213 kts | 347° |
| 2026-05-05 09:43 | 49.61027 | 11.11751 | 15855 ft | 213 kts | 347° |
| 2026-05-05 09:43 | 49.62494 | 11.11363 | 15857 ft | 213 kts | 347° |
| 2026-05-05 09:43 | 49.63958 | 11.10975 | 15852 ft | 214 kts | 347° |
| 2026-05-05 09:44 | 49.65425 | 11.10588 | 15852 ft | 214 kts | 347° |
| 2026-05-05 09:44 | 49.66889 | 11.10201 | 15853 ft | 213 kts | 347° |
| 2026-05-05 09:44 | 49.68356 | 11.09811 | 15854 ft | 213 kts | 347° |
| 2026-05-05 09:44 | 49.69820 | 11.09422 | 15851 ft | 213 kts | 347° |
| 2026-05-05 09:45 | 49.71282 | 11.09034 | 15847 ft | 213 kts | 347° |
| 2026-05-05 09:45 | 49.72743 | 11.08647 | 15850 ft | 213 kts | 347° |
| 2026-05-05 09:45 | 49.74201 | 11.08260 | 15851 ft | 212 kts | 347° |
| 2026-05-05 09:45 | 49.75637 | 11.07878 | 15849 ft | 212 kts | 347° |
| 2026-05-05 09:46 | 49.77091 | 11.07491 | 15851 ft | 212 kts | 347° |
| 2026-05-05 09:46 | 49.78549 | 11.07102 | 15852 ft | 212 kts | 347° |
| 2026-05-05 09:46 | 49.80006 | 11.06713 | 15848 ft | 212 kts | 347° |
| 2026-05-05 09:46 | 49.81463 | 11.06327 | 15850 ft | 212 kts | 347° |
| 2026-05-05 09:47 | 49.82921 | 11.05938 | 15850 ft | 212 kts | 347° |
| 2026-05-05 09:47 | 49.84377 | 11.05549 | 15849 ft | 212 kts | 347° |
| 2026-05-05 09:47 | 49.85832 | 11.05160 | 15847 ft | 212 kts | 347° |
| 2026-05-05 09:47 | 49.87273 | 11.04699 | 15851 ft | 209 kts | 338° |
| 2026-05-05 09:48 | 49.88528 | 11.03641 | 15857 ft | 204 kts | 316° |
| 2026-05-05 09:48 | 49.89523 | 11.02112 | 15848 ft | 201 kts | 308° |
| 2026-05-05 09:48 | 49.90491 | 11.00548 | 15852 ft | 201 kts | 309° |
| 2026-05-05 09:48 | 49.91461 | 10.98986 | 15851 ft | 201 kts | 309° |
| 2026-05-05 09:49 | 49.92428 | 10.97424 | 15852 ft | 201 kts | 309° |
| 2026-05-05 09:49 | 49.93397 | 10.95854 | 15852 ft | 201 kts | 308° |
| 2026-05-05 09:49 | 49.94351 | 10.94307 | 15854 ft | 201 kts | 308° |
| 2026-05-05 09:49 | 49.95315 | 10.92742 | 15855 ft | 201 kts | 308° |
| 2026-05-05 09:50 | 49.96283 | 10.91173 | 15853 ft | 200 kts | 308° |
| 2026-05-05 09:50 | 49.97246 | 10.89608 | 15855 ft | 200 kts | 308° |
| 2026-05-05 09:50 | 49.98211 | 10.88042 | 15855 ft | 200 kts | 308° |
| 2026-05-05 09:50 | 49.99173 | 10.86478 | 15852 ft | 200 kts | 308° |
| 2026-05-05 09:51 | 50.00135 | 10.84914 | 15857 ft | 200 kts | 308° |
| 2026-05-05 09:51 | 50.01097 | 10.83348 | 15859 ft | 200 kts | 308° |
| 2026-05-05 09:51 | 50.02062 | 10.81778 | 15863 ft | 200 kts | 308° |
| 2026-05-05 09:51 | 50.03011 | 10.80228 | 15862 ft | 201 kts | 308° |
| 2026-05-05 09:52 | 50.03978 | 10.78652 | 15859 ft | 201 kts | 308° |
| 2026-05-05 09:52 | 50.04945 | 10.77076 | 15859 ft | 201 kts | 308° |
| 2026-05-05 09:52 | 50.05911 | 10.75505 | 15858 ft | 200 kts | 308° |
| 2026-05-05 09:52 | 50.06867 | 10.73944 | 15860 ft | 199 kts | 308° |
| 2026-05-05 09:53 | 50.07823 | 10.72382 | 15860 ft | 199 kts | 308° |
| 2026-05-05 09:53 | 50.08776 | 10.70827 | 15866 ft | 198 kts | 308° |
| 2026-05-05 09:53 | 50.09729 | 10.69269 | 15866 ft | 199 kts | 308° |
| 2026-05-05 09:53 | 50.10682 | 10.67712 | 15870 ft | 199 kts | 308° |
| 2026-05-05 09:54 | 50.11635 | 10.66150 | 15868 ft | 199 kts | 308° |
| 2026-05-05 09:54 | 50.12589 | 10.64587 | 15867 ft | 199 kts | 308° |
| 2026-05-05 09:54 | 50.13545 | 10.63022 | 15865 ft | 199 kts | 308° |
| 2026-05-05 09:54 | 50.14489 | 10.61477 | 15867 ft | 199 kts | 308° |
| 2026-05-05 09:55 | 50.15445 | 10.59911 | 15867 ft | 199 kts | 308° |
| 2026-05-05 09:55 | 50.16399 | 10.58343 | 15871 ft | 200 kts | 308° |
| 2026-05-05 09:55 | 50.17357 | 10.56768 | 15865 ft | 200 kts | 308° |
| 2026-05-05 09:55 | 50.18314 | 10.55194 | 15863 ft | 199 kts | 308° |
| 2026-05-05 09:56 | 50.19269 | 10.53623 | 15868 ft | 199 kts | 308° |
| 2026-05-05 09:56 | 50.20224 | 10.52048 | 15869 ft | 200 kts | 308° |
| 2026-05-05 09:56 | 50.21179 | 10.50472 | 15867 ft | 200 kts | 308° |
| 2026-05-05 09:56 | 50.22191 | 10.48979 | 15869 ft | 203 kts | 320° |
| 2026-05-05 09:57 | 50.23499 | 10.48080 | 15867 ft | 209 kts | 344° |
| 2026-05-05 09:57 | 50.24939 | 10.47717 | 15869 ft | 209 kts | 346° |
| 2026-05-05 09:57 | 50.26369 | 10.47303 | 15868 ft | 208 kts | 345° |
| 2026-05-05 09:57 | 50.27793 | 10.46868 | 15871 ft | 209 kts | 345° |
| 2026-05-05 09:58 | 50.29201 | 10.46438 | 15867 ft | 209 kts | 345° |
| 2026-05-05 09:58 | 50.30632 | 10.46009 | 15868 ft | 209 kts | 345° |
| 2026-05-05 09:58 | 50.32063 | 10.45583 | 15871 ft | 209 kts | 345° |
| 2026-05-05 09:58 | 50.33495 | 10.45161 | 15869 ft | 209 kts | 345° |
| 2026-05-05 09:59 | 50.34932 | 10.44738 | 15872 ft | 209 kts | 345° |
| 2026-05-05 09:59 | 50.36370 | 10.44316 | 15872 ft | 210 kts | 345° |
| 2026-05-05 09:59 | 50.37786 | 10.43900 | 15871 ft | 210 kts | 345° |
| 2026-05-05 09:59 | 50.39219 | 10.43478 | 15870 ft | 209 kts | 345° |
| 2026-05-05 10:00 | 50.40650 | 10.43055 | 15871 ft | 209 kts | 345° |
| 2026-05-05 10:00 | 50.42084 | 10.42634 | 15877 ft | 209 kts | 345° |
| 2026-05-05 10:00 | 50.43518 | 10.42213 | 15880 ft | 210 kts | 345° |
| 2026-05-05 10:00 | 50.44961 | 10.41789 | 15886 ft | 212 kts | 345° |
| 2026-05-05 10:01 | 50.46418 | 10.41358 | 15876 ft | 214 kts | 345° |
| 2026-05-05 10:01 | 50.47877 | 10.40929 | 15863 ft | 213 kts | 345° |
| 2026-05-05 10:01 | 50.49308 | 10.40508 | 15875 ft | 211 kts | 345° |
| 2026-05-05 10:01 | 50.50752 | 10.40082 | 15876 ft | 211 kts | 345° |
| 2026-05-05 10:02 | 50.52192 | 10.39658 | 15875 ft | 210 kts | 345° |
| 2026-05-05 10:02 | 50.53630 | 10.39233 | 15875 ft | 210 kts | 345° |
| 2026-05-05 10:02 | 50.55035 | 10.38677 | 15877 ft | 206 kts | 333° |
| 2026-05-05 10:02 | 50.56278 | 10.37609 | 15874 ft | 201 kts | 319° |
| 2026-05-05 10:03 | 50.57435 | 10.36365 | 15873 ft | 201 kts | 320° |
| 2026-05-05 10:03 | 50.58600 | 10.35149 | 15875 ft | 201 kts | 320° |
| 2026-05-05 10:03 | 50.59767 | 10.33937 | 15882 ft | 201 kts | 320° |
| 2026-05-05 10:03 | 50.60933 | 10.32724 | 15880 ft | 201 kts | 320° |
| 2026-05-05 10:04 | 50.62082 | 10.31522 | 15880 ft | 201 kts | 320° |
| 2026-05-05 10:04 | 50.63249 | 10.30300 | 15882 ft | 201 kts | 320° |
| 2026-05-05 10:04 | 50.64418 | 10.29072 | 15882 ft | 202 kts | 320° |
| 2026-05-05 10:04 | 50.65587 | 10.27843 | 15877 ft | 202 kts | 320° |
| 2026-05-05 10:05 | 50.66752 | 10.26617 | 15876 ft | 201 kts | 320° |
| 2026-05-05 10:05 | 50.67915 | 10.25389 | 15880 ft | 201 kts | 320° |
| 2026-05-05 10:05 | 50.69077 | 10.24160 | 15877 ft | 201 kts | 320° |
| 2026-05-05 10:05 | 50.70236 | 10.22933 | 15879 ft | 201 kts | 321° |
| 2026-05-05 10:06 | 50.71397 | 10.21705 | 15883 ft | 201 kts | 320° |
| 2026-05-05 10:06 | 50.72546 | 10.20488 | 15877 ft | 200 kts | 320° |
| 2026-05-05 10:06 | 50.73704 | 10.19259 | 15873 ft | 201 kts | 320° |
| 2026-05-05 10:06 | 50.74865 | 10.18029 | 15884 ft | 201 kts | 320° |
| 2026-05-05 10:07 | 50.76026 | 10.16797 | 15875 ft | 201 kts | 320° |
| 2026-05-05 10:07 | 50.77188 | 10.15564 | 15880 ft | 201 kts | 320° |
| 2026-05-05 10:07 | 50.78352 | 10.14327 | 15881 ft | 201 kts | 320° |
| 2026-05-05 10:07 | 50.79515 | 10.13092 | 15875 ft | 202 kts | 320° |
| 2026-05-05 10:08 | 50.80285 | 10.12272 | 15879 ft | 201 kts | 321° |
| 2026-05-05 10:08 | 50.81445 | 10.11040 | 15876 ft | 200 kts | 321° |
| 2026-05-05 10:08 | 50.82599 | 10.09812 | 15877 ft | 199 kts | 320° |
| 2026-05-05 10:08 | 50.83749 | 10.08587 | 15880 ft | 199 kts | 321° |
| 2026-05-05 10:09 | 50.85255 | 10.06985 | 15751 ft | 197 kts | 320° |
| 2026-05-05 10:09 | 50.86031 | 10.06156 | 15549 ft | 199 kts | 321° |
| 2026-05-05 10:09 | 50.87181 | 10.04928 | 15252 ft | 200 kts | 321° |
| 2026-05-05 10:09 | 50.88320 | 10.03712 | 14958 ft | 200 kts | 321° |
| 2026-05-05 10:10 | 50.89471 | 10.02484 | 14669 ft | 199 kts | 321° |
| 2026-05-05 10:10 | 50.90622 | 10.01254 | 14380 ft | 199 kts | 321° |
| 2026-05-05 10:10 | 50.91769 | 10.00029 | 14090 ft | 198 kts | 321° |
| 2026-05-05 10:10 | 50.92911 | 9.98808 | 13810 ft | 198 kts | 321° |
| 2026-05-05 10:11 | 50.94056 | 9.97581 | 13460 ft | 200 kts | 322° |
| 2026-05-05 10:11 | 50.95211 | 9.96343 | 13087 ft | 201 kts | 322° |
| 2026-05-05 10:11 | 50.96371 | 9.95097 | 12726 ft | 202 kts | 322° |
| 2026-05-05 10:11 | 50.97536 | 9.93847 | 12357 ft | 202 kts | 322° |
| 2026-05-05 10:12 | 50.98700 | 9.92596 | 12006 ft | 202 kts | 322° |
| 2026-05-05 10:12 | 50.99852 | 9.91357 | 11651 ft | 202 kts | 322° |
| 2026-05-05 10:12 | 51.01012 | 9.90110 | 11296 ft | 201 kts | 322° |
| 2026-05-05 10:12 | 51.02169 | 9.88865 | 10947 ft | 199 kts | 322° |
| 2026-05-05 10:13 | 51.03315 | 9.87631 | 10607 ft | 199 kts | 322° |
| 2026-05-05 10:13 | 51.04457 | 9.86399 | 10266 ft | 198 kts | 322° |
| 2026-05-05 10:13 | 51.05595 | 9.85170 | 9929 ft | 197 kts | 322° |
| 2026-05-05 10:13 | 51.06731 | 9.83945 | 9574 ft | 197 kts | 322° |
| 2026-05-05 10:14 | 51.07867 | 9.82718 | 9204 ft | 197 kts | 322° |
| 2026-05-05 10:14 | 51.08983 | 9.81512 | 8845 ft | 196 kts | 322° |
| 2026-05-05 10:14 | 51.10107 | 9.80296 | 8481 ft | 195 kts | 322° |
| 2026-05-05 10:14 | 51.11228 | 9.79083 | 8121 ft | 193 kts | 322° |
| 2026-05-05 10:15 | 51.12332 | 9.77886 | 7769 ft | 192 kts | 323° |
| 2026-05-05 10:15 | 51.13435 | 9.76693 | 7424 ft | 191 kts | 323° |
| 2026-05-05 10:15 | 51.14534 | 9.75502 | 7079 ft | 190 kts | 323° |
| 2026-05-05 10:15 | 51.15625 | 9.74320 | 6736 ft | 190 kts | 323° |
| 2026-05-05 10:16 | 51.16718 | 9.73134 | 6400 ft | 190 kts | 323° |
| 2026-05-05 10:16 | 51.17806 | 9.71953 | 6042 ft | 189 kts | 323° |
| 2026-05-05 10:16 | 51.18888 | 9.70776 | 5688 ft | 188 kts | 323° |
| 2026-05-05 10:16 | 51.20015 | 9.69756 | 5436 ft | 184 kts | 339° |
| 2026-05-05 10:17 | 51.21235 | 9.69549 | 5336 ft | 176 kts | 5° |
| 2026-05-05 10:17 | 51.22404 | 9.69993 | 5235 ft | 170 kts | 15° |
| 2026-05-05 10:17 | 51.23531 | 9.70508 | 5136 ft | 167 kts | 15° |
| 2026-05-05 10:17 | 51.24649 | 9.71018 | 5029 ft | 166 kts | 15° |
| 2026-05-05 10:18 | 51.25767 | 9.71529 | 4935 ft | 168 kts | 15° |
| 2026-05-05 10:18 | 51.26897 | 9.72047 | 4841 ft | 169 kts | 15° |
| 2026-05-05 10:18 | 51.28032 | 9.72569 | 4739 ft | 170 kts | 15° |
| 2026-05-05 10:18 | 51.29161 | 9.73088 | 4631 ft | 168 kts | 15° |
| 2026-05-05 10:19 | 51.30298 | 9.73497 | 4538 ft | 167 kts | 7° |
| 2026-05-05 10:19 | 51.31438 | 9.73658 | 4431 ft | 166 kts | 3° |
| 2026-05-05 10:19 | 51.32585 | 9.73825 | 4326 ft | 165 kts | 4° |
| 2026-05-05 10:19 | 51.33724 | 9.74002 | 4219 ft | 164 kts | 4° |
| 2026-05-05 10:20 | 51.34854 | 9.74170 | 4116 ft | 163 kts | 4° |
| 2026-05-05 10:20 | 51.35981 | 9.74336 | 4018 ft | 162 kts | 4° |
| 2026-05-05 10:20 | 51.37107 | 9.74502 | 3925 ft | 163 kts | 4° |
| 2026-05-05 10:20 | 51.38237 | 9.74563 | 3822 ft | 162 kts | 351° |
| 2026-05-05 10:21 | 51.39266 | 9.73913 | 3717 ft | 160 kts | 323° |
| 2026-05-05 10:21 | 51.39997 | 9.72627 | 3625 ft | 158 kts | 298° |
| 2026-05-05 10:21 | 51.40322 | 9.70967 | 3521 ft | 156 kts | 274° |
| 2026-05-05 10:21 | 51.40404 | 9.69267 | 3537 ft | 149 kts | 274° |
| 2026-05-05 10:22 | 51.40511 | 9.67643 | 3556 ft | 145 kts | 275° |
| 2026-05-05 10:22 | 51.40619 | 9.66066 | 3570 ft | 141 kts | 274° |
| 2026-05-05 10:22 | 51.40714 | 9.64510 | 3568 ft | 140 kts | 274° |
| 2026-05-05 10:22 | 51.40800 | 9.62960 | 3558 ft | 140 kts | 273° |
| 2026-05-05 10:23 | 51.40880 | 9.61333 | 3342 ft | 150 kts | 272° |
| 2026-05-05 10:23 | 51.40962 | 9.59680 | 3133 ft | 148 kts | 274° |
| 2026-05-05 10:23 | 51.41049 | 9.58082 | 2964 ft | 141 kts | 274° |
| 2026-05-05 10:23 | 51.41137 | 9.56535 | 2773 ft | 138 kts | 274° |
| 2026-05-05 10:24 | 51.41223 | 9.55006 | 2581 ft | 137 kts | 274° |
| 2026-05-05 10:24 | 51.41304 | 9.53501 | 2400 ft | 135 kts | 274° |
| 2026-05-05 10:24 | 51.41383 | 9.52026 | 2224 ft | 130 kts | 274° |
| 2026-05-05 10:24 | 51.41459 | 9.50614 | 2055 ft | 125 kts | 274° |
| 2026-05-05 10:25 | 51.41533 | 9.49249 | 1891 ft | 122 kts | 274° |
| 2026-05-05 10:25 | 51.41602 | 9.47936 | 1752 ft | 119 kts | 274° |
| 2026-05-05 10:25 | 51.41669 | 9.46615 | 1590 ft | 116 kts | 275° |
| 2026-05-05 10:25 | 51.41741 | 9.45331 | 1390 ft | 113 kts | 275° |
| 2026-05-05 10:26 | 51.41798 | 9.44125 | 1253 ft | 108 kts | 277° |
| 2026-05-05 10:26 | 51.41867 | 9.42936 | 1102 ft | 107 kts | 276° |
| 2026-05-05 10:26 | 51.41948 | 9.41759 | 981 ft | 103 kts | 276° |
| 2026-05-05 10:26 | 51.42003 | 9.40637 | 845 ft | 98 kts | 275° |
| 2026-05-05 10:27 | 51.42059 | 9.39646 | 841 ft | 79 kts | 273° |
| 2026-05-05 10:27 | 51.42089 | 9.39026 | 845 ft | 21 kts | 274° |
| 2026-05-05 10:27 | 51.42052 | 9.38880 | 847 ft | 13 kts | 184° |
| 2026-05-05 10:27 | 51.42007 | 9.38875 | 848 ft | 0 kts | 185° |
| 2026-05-05 10:28 | 51.41977 | 9.38870 | 849 ft | 11 kts | 186° |
| 2026-05-05 10:28 | 51.41931 | 9.38999 | 848 ft | 21 kts | 96° |
| 2026-05-05 10:28 | 51.41917 | 9.39263 | 845 ft | 26 kts | 95° |
| 2026-05-05 10:29 | 51.41885 | 9.39363 | 841 ft | 12 kts | 180° |
| 2026-05-05 10:29 | 51.41821 | 9.39354 | 833 ft | 9 kts | 181° |
| 2026-05-05 10:29 | 51.41767 | 9.39386 | 838 ft | 3 kts | 163° |
| 2026-05-05 10:29 | 51.41751 | 9.39386 | 839 ft | 0 kts | 186° |